Time;durP1;ratioP1;P1;durP2;ratioP2;P2;SDS_P1;SDS_P2;PMS_P1;PMS_P2;Temp;Humidity;BMP_temperature;BMP_pressure;BME280_temperature;BME280_humidity;BME280_pressure;Samples;Min_cycle;Max_cycle;Signal;HPM_P1;HPM_P2
2022/02/12 00:00:26;;;;;;;11.23;3.60;;;;;;;;;;5045672;28;20193;-68
2022/02/12 00:02:55;;;;;;;11.53;3.40;;;;;;;;;;5036767;28;20465;-67
2022/02/12 00:05:24;;;;;;;13.90;3.37;;;;;;;;;;5038140;28;20620;-67
2022/02/12 00:07:49;;;;;;;13.33;3.63;;;;;;;;;;5041290;28;20525;-67
2022/02/12 00:10:14;;;;;;;7.50;3.13;;;;;;;;;;5045779;28;20181;-68
2022/02/12 00:12:40;;;;;;;9.90;3.20;;;;;;;;;;5042737;28;20193;-67
2022/02/12 00:15:06;;;;;;;15.27;3.83;;;;;;;;;;5051629;28;20178;-67
2022/02/12 00:17:31;;;;;;;12.67;3.43;;;;;;;;;;5048063;28;20177;-68
2022/02/12 00:19:56;;;;;;;7.60;3.43;;;;;;;;;;5051641;28;20204;-67
2022/02/12 00:22:22;;;;;;;10.33;3.30;;;;;;;;;;5049897;28;20311;-67
2022/02/12 00:24:47;;;;;;;15.30;3.47;;;;;;;;;;5052034;28;20181;-67
2022/02/12 00:27:12;;;;;;;7.07;3.33;;;;;;;;;;5052922;28;20593;-67
2022/02/12 00:29:38;;;;;;;7.67;3.43;;;;;;;;;;5052052;28;20327;-67
2022/02/12 00:32:03;;;;;;;13.67;3.87;;;;;;;;;;5050730;28;20733;-67
2022/02/12 00:34:29;;;;;;;9.67;3.30;;;;;;;;;;5048221;28;20185;-66
2022/02/12 00:36:54;;;;;;;12.13;3.57;;;;;;;;;;5050884;28;21501;-67
2022/02/12 00:39:20;;;;;;;8.93;3.67;;;;;;;;;;5047951;28;20614;-67
2022/02/12 00:41:45;;;;;;;12.77;3.43;;;;;;;;;;5054647;28;20597;-67
2022/02/12 00:44:10;;;;;;;9.10;3.07;;;;;;;;;;5046266;28;21005;-67
2022/02/12 00:46:36;;;;;;;11.13;3.53;;;;;;;;;;5044299;28;20193;-67
2022/02/12 00:49:03;;;;;;;9.30;3.47;;;;;;;;;;5051781;28;20199;-67
2022/02/12 00:51:33;;;;;;;7.97;3.23;;;;;;;;;;5048562;28;20193;-67
2022/02/12 00:53:58;;;;;;;13.27;3.70;;;;;;;;;;5050400;28;20201;-67
2022/02/12 00:56:24;;;;;;;10.37;3.33;;;;;;;;;;5048368;28;20410;-68
2022/02/12 00:58:49;;;;;;;13.90;3.57;;;;;;;;;;5048695;28;20581;-67
2022/02/12 01:01:14;;;;;;;9.70;3.03;;;;;;;;;;5049036;28;20209;-66
2022/02/12 01:03:40;;;;;;;19.27;3.57;;;;;;;;;;5047927;28;20685;-67
2022/02/12 01:06:05;;;;;;;11.43;3.83;;;;;;;;;;5049152;28;20218;-67
2022/02/12 01:08:31;;;;;;;21.20;3.67;;;;;;;;;;5049129;28;20188;-67
2022/02/12 01:10:56;;;;;;;13.03;3.77;;;;;;;;;;5047879;28;20236;-66
2022/02/12 01:13:21;;;;;;;9.73;3.73;;;;;;;;;;5048436;28;20190;-67
2022/02/12 01:15:47;;;;;;;14.33;3.60;;;;;;;;;;5052708;28;20196;-67
2022/02/12 01:18:12;;;;;;;16.10;4.03;;;;;;;;;;5043857;28;20189;-66
2022/02/12 01:20:39;;;;;;;14.53;3.67;;;;;;;;;;5051329;28;20209;-67
2022/02/12 01:23:05;;;;;;;17.50;4.33;;;;;;;;;;5047195;28;20189;-68
2022/02/12 01:25:31;;;;;;;11.40;4.10;;;;;;;;;;5053072;28;20189;-67
2022/02/12 01:27:56;;;;;;;12.10;4.30;;;;;;;;;;5045101;28;20711;-67
2022/02/12 01:30:21;;;;;;;16.30;4.07;;;;;;;;;;5045408;28;20694;-67
2022/02/12 01:32:47;;;;;;;15.87;4.00;;;;;;;;;;5041662;28;20264;-67
2022/02/12 01:35:12;;;;;;;13.80;4.13;;;;;;;;;;5049652;28;20216;-66
2022/02/12 01:37:38;;;;;;;12.33;4.17;;;;;;;;;;5045553;28;20189;-67
2022/02/12 01:40:06;;;;;;;11.87;4.77;;;;;;;;;;5048922;28;20625;-67
2022/02/12 01:42:31;;;;;;;10.60;4.17;;;;;;;;;;5042317;28;20186;-67
2022/02/12 01:45:00;;;;;;;13.87;4.27;;;;;;;;;;5047935;28;20185;-67
2022/02/12 01:47:26;;;;;;;11.87;4.83;;;;;;;;;;5045744;28;20192;-67
2022/02/12 01:49:52;;;;;;;13.87;5.30;;;;;;;;;;5048055;28;20185;-66
2022/02/12 01:52:18;;;;;;;18.97;4.80;;;;;;;;;;5044078;28;20202;-67
2022/02/12 01:54:44;;;;;;;13.30;4.70;;;;;;;;;;5047286;28;20231;-66
2022/02/12 01:57:09;;;;;;;16.67;4.67;;;;;;;;;;5044384;28;20189;-67
2022/02/12 01:59:35;;;;;;;10.33;4.03;;;;;;;;;;5048999;28;20181;-67
2022/02/12 02:02:02;;;;;;;12.13;4.37;;;;;;;;;;5043165;28;20550;-67
2022/02/12 02:04:28;;;;;;;18.27;5.53;;;;;;;;;;5043699;28;20237;-67
2022/02/12 02:06:53;;;;;;;12.70;4.80;;;;;;;;;;5044254;28;20616;-67
2022/02/12 02:09:20;;;;;;;11.53;5.37;;;;;;;;;;5045803;28;20288;-67
2022/02/12 02:11:46;;;;;;;10.33;4.50;;;;;;;;;;5044134;28;20190;-68
2022/02/12 02:14:12;;;;;;;17.93;4.83;;;;;;;;;;5038795;28;20194;-67
2022/02/12 02:16:40;;;;;;;12.63;4.00;;;;;;;;;;5041505;28;20200;-67
2022/02/12 02:19:06;;;;;;;15.87;4.80;;;;;;;;;;5046809;28;20185;-67
2022/02/12 02:21:34;;;;;;;14.07;4.63;;;;;;;;;;5043750;28;20262;-67
2022/02/12 02:23:59;;;;;;;9.27;4.53;;;;;;;;;;5045654;28;20192;-67
2022/02/12 02:26:24;;;;;;;10.20;4.50;;;;;;;;;;5045134;28;20197;-67
2022/02/12 02:28:50;;;;;;;16.33;4.67;;;;;;;;;;5045898;28;20251;-67
2022/02/12 02:31:15;;;;;;;15.83;4.70;;;;;;;;;;5046489;28;20574;-67
2022/02/12 02:33:41;;;;;;;10.03;4.43;;;;;;;;;;5044535;28;20653;-67
2022/02/12 02:36:06;;;;;;;13.43;4.47;;;;;;;;;;5045475;28;20205;-67
2022/02/12 02:38:31;;;;;;;19.20;5.00;;;;;;;;;;5040587;28;20216;-67
2022/02/12 02:40:57;;;;;;;14.63;5.40;;;;;;;;;;5039381;28;20224;-67
2022/02/12 02:43:24;;;;;;;11.83;5.00;;;;;;;;;;5045339;28;20620;-67
2022/02/12 02:45:50;;;;;;;13.63;4.80;;;;;;;;;;5043868;28;20198;-67
2022/02/12 02:48:15;;;;;;;11.83;5.60;;;;;;;;;;5045731;28;20192;-67
2022/02/12 02:56:10;;;;;;;15.47;5.10;;;;;;;;;;5039472;28;20212;-67
2022/02/12 02:58:41;;;;;;;14.90;5.43;;;;;;;;;;5039989;28;20633;-68
2022/02/12 03:01:10;;;;;;;12.63;5.10;;;;;;;;;;5046751;28;20213;-67
2022/02/12 03:03:36;;;;;;;13.13;5.17;;;;;;;;;;5046428;28;20188;-67
2022/02/12 03:06:02;;;;;;;14.17;5.63;;;;;;;;;;5023274;28;20625;-66
2022/02/12 03:08:28;;;;;;;12.33;5.43;;;;;;;;;;5027239;28;21421;-66
2022/02/12 03:10:54;;;;;;;13.73;5.50;;;;;;;;;;5024212;28;20182;-66
2022/02/12 03:13:20;;;;;;;19.60;5.87;;;;;;;;;;5018586;28;20186;-66
2022/02/12 03:15:46;;;;;;;19.53;5.50;;;;;;;;;;5019823;28;20200;-67
2022/02/12 03:18:11;;;;;;;12.80;4.83;;;;;;;;;;5026550;28;20648;-66
2022/02/12 03:20:37;;;;;;;14.77;5.67;;;;;;;;;;5017294;28;20229;-66
2022/02/12 03:23:03;;;;;;;16.60;5.50;;;;;;;;;;5019812;28;20225;-67
2022/02/12 03:25:28;;;;;;;11.13;5.37;;;;;;;;;;5024995;28;20629;-66
2022/02/12 03:27:55;;;;;;;16.50;5.70;;;;;;;;;;5025741;28;20292;-67
2022/02/12 03:30:21;;;;;;;20.30;6.53;;;;;;;;;;5020017;28;20577;-67
2022/02/12 03:32:46;;;;;;;22.53;6.30;;;;;;;;;;5020187;28;20202;-68
2022/02/12 03:35:12;;;;;;;26.17;6.20;;;;;;;;;;5017093;28;20207;-67
2022/02/12 03:37:37;;;;;;;16.33;6.53;;;;;;;;;;5026232;28;20277;-66
2022/02/12 03:40:03;;;;;;;21.23;5.77;;;;;;;;;;5017150;28;20665;-66
2022/02/12 03:42:29;;;;;;;21.13;5.97;;;;;;;;;;5022741;28;20194;-66
2022/02/12 03:44:54;;;;;;;11.77;5.97;;;;;;;;;;5019435;28;20186;-66
2022/02/12 03:47:19;;;;;;;15.80;6.60;;;;;;;;;;5022672;28;20201;-66
2022/02/12 03:49:44;;;;;;;16.40;7.13;;;;;;;;;;5015444;28;20197;-67
2022/02/12 03:52:10;;;;;;;15.60;6.80;;;;;;;;;;5024280;28;20184;-67
2022/02/12 03:54:35;;;;;;;23.97;7.77;;;;;;;;;;5014596;28;20196;-66
2022/02/12 03:57:01;;;;;;;20.93;8.10;;;;;;;;;;5022255;28;20226;-66
2022/02/12 03:59:26;;;;;;;25.93;7.70;;;;;;;;;;5017471;28;20293;-66
2022/02/12 04:01:51;;;;;;;20.53;7.87;;;;;;;;;;5023414;28;20271;-67
2022/02/12 04:04:16;;;;;;;33.17;8.73;;;;;;;;;;5028897;28;20259;-66
2022/02/12 04:06:42;;;;;;;17.87;7.70;;;;;;;;;;5042492;28;20657;-66
2022/02/12 04:09:07;;;;;;;21.97;7.67;;;;;;;;;;5031446;28;20871;-67
2022/02/12 04:11:32;;;;;;;23.50;8.80;;;;;;;;;;5041448;28;20185;-67
2022/02/12 04:13:58;;;;;;;25.13;7.47;;;;;;;;;;5045320;28;20268;-67
2022/02/12 04:16:23;;;;;;;22.63;8.37;;;;;;;;;;5044560;28;20300;-66
2022/02/12 04:18:48;;;;;;;26.50;9.07;;;;;;;;;;5044659;28;20183;-67
2022/02/12 04:21:15;;;;;;;24.77;9.63;;;;;;;;;;5042372;28;20686;-66
2022/02/12 04:23:40;;;;;;;21.87;8.43;;;;;;;;;;5046932;28;20197;-66
2022/02/12 04:26:08;;;;;;;22.00;8.00;;;;;;;;;;5039352;28;20255;-66
2022/02/12 04:28:36;;;;;;;24.13;8.93;;;;;;;;;;5037168;28;20178;-66
2022/02/12 04:31:04;;;;;;;21.37;8.57;;;;;;;;;;5039398;28;20203;-66
2022/02/12 04:33:30;;;;;;;17.37;8.90;;;;;;;;;;5046027;28;20819;-66
2022/02/12 04:35:57;;;;;;;28.67;9.00;;;;;;;;;;5041084;28;20549;-66
2022/02/12 04:38:22;;;;;;;24.93;9.03;;;;;;;;;;5035796;28;20182;-66
2022/02/12 04:40:47;;;;;;;17.97;8.83;;;;;;;;;;5038427;28;20346;-67
2022/02/12 04:43:13;;;;;;;23.60;9.70;;;;;;;;;;5047027;28;20238;-67
2022/02/12 04:45:38;;;;;;;19.20;9.57;;;;;;;;;;5041206;28;20259;-67
2022/02/12 04:48:04;;;;;;;21.30;9.10;;;;;;;;;;5043498;28;20185;-67
2022/02/12 04:50:29;;;;;;;25.50;9.30;;;;;;;;;;5043178;28;20234;-67
2022/02/12 04:52:55;;;;;;;23.13;8.20;;;;;;;;;;5041801;28;20200;-67
2022/02/12 04:55:20;;;;;;;24.53;10.30;;;;;;;;;;5042542;28;20665;-67
2022/02/12 04:57:45;;;;;;;30.87;10.57;;;;;;;;;;5045240;28;20189;-67
2022/02/12 05:00:12;;;;;;;27.47;10.00;;;;;;;;;;5043767;28;20201;-67
2022/02/12 05:02:37;;;;;;;24.57;10.63;;;;;;;;;;5042201;28;20188;-67
2022/02/12 05:05:03;;;;;;;24.47;9.73;;;;;;;;;;5046132;28;20228;-67
2022/02/12 05:07:28;;;;;;;28.10;10.10;;;;;;;;;;5045212;28;20602;-67
2022/02/12 05:09:53;;;;;;;30.23;9.70;;;;;;;;;;5044831;28;20196;-67
2022/02/12 05:12:19;;;;;;;26.40;10.23;;;;;;;;;;5047307;28;20263;-67
2022/02/12 05:14:44;;;;;;;28.20;9.33;;;;;;;;;;5046385;28;20224;-67
2022/02/12 05:17:09;;;;;;;22.63;8.70;;;;;;;;;;5044086;28;20414;-67
2022/02/12 05:19:35;;;;;;;29.30;11.13;;;;;;;;;;5037316;28;20267;-67
2022/02/12 05:22:00;;;;;;;26.83;8.33;;;;;;;;;;5048981;28;20233;-67
2022/02/12 05:24:26;;;;;;;24.87;9.63;;;;;;;;;;5039444;28;20586;-66
2022/02/12 05:26:51;;;;;;;28.33;9.57;;;;;;;;;;5049256;28;20181;-66
2022/02/12 05:29:16;;;;;;;22.93;9.63;;;;;;;;;;5047217;28;20226;-67
2022/02/12 05:31:42;;;;;;;23.43;9.43;;;;;;;;;;5044131;28;20201;-67
2022/02/12 05:34:07;;;;;;;22.80;8.83;;;;;;;;;;5043656;28;20185;-67
2022/02/12 05:36:33;;;;;;;21.80;8.50;;;;;;;;;;5046548;28;20602;-67
2022/02/12 05:38:58;;;;;;;22.23;7.63;;;;;;;;;;5045344;28;20272;-66
2022/02/12 05:41:23;;;;;;;23.73;8.60;;;;;;;;;;5045060;28;20204;-66
2022/02/12 05:43:49;;;;;;;22.37;8.23;;;;;;;;;;5045807;28;20594;-67
2022/02/12 05:46:15;;;;;;;30.13;8.53;;;;;;;;;;5059607;28;20655;-67
2022/02/12 05:48:40;;;;;;;27.13;8.00;;;;;;;;;;5045581;28;20645;-67
2022/02/12 05:51:06;;;;;;;22.07;7.97;;;;;;;;;;5047409;28;20272;-67
2022/02/12 05:53:32;;;;;;;16.80;8.03;;;;;;;;;;5044292;28;20766;-67
2022/02/12 05:55:58;;;;;;;21.37;7.17;;;;;;;;;;5046150;28;20235;-67
2022/02/12 05:58:23;;;;;;;16.73;7.70;;;;;;;;;;5043841;28;20553;-67
2022/02/12 06:00:50;;;;;;;14.27;7.23;;;;;;;;;;5049631;28;20274;-67
2022/02/12 06:03:16;;;;;;;20.33;7.17;;;;;;;;;;5042852;28;20205;-67
2022/02/12 06:05:41;;;;;;;20.23;7.07;;;;;;;;;;5047701;28;20262;-67
2022/02/12 06:08:08;;;;;;;19.63;8.20;;;;;;;;;;5044880;28;20205;-68
2022/02/12 06:10:34;;;;;;;18.77;7.00;;;;;;;;;;5047104;28;20637;-66
2022/02/12 06:12:59;;;;;;;19.60;6.67;;;;;;;;;;5042433;28;20276;-67
2022/02/12 06:15:26;;;;;;;22.43;5.80;;;;;;;;;;5052087;28;20201;-67
2022/02/12 06:17:51;;;;;;;17.00;5.87;;;;;;;;;;5057994;28;20270;-67
2022/02/12 06:20:16;;;;;;;18.60;5.33;;;;;;;;;;5046099;28;20221;-66
2022/02/12 06:22:42;;;;;;;18.10;5.47;;;;;;;;;;5044664;28;20182;-67
2022/02/12 06:25:08;;;;;;;12.03;5.90;;;;;;;;;;5042473;28;20200;-67
2022/02/12 06:27:33;;;;;;;19.73;4.80;;;;;;;;;;5048311;28;20316;-67
2022/02/12 06:29:58;;;;;;;20.53;5.77;;;;;;;;;;5042273;28;20662;-67
2022/02/12 06:32:24;;;;;;;16.23;4.97;;;;;;;;;;5045432;28;20204;-67
2022/02/12 06:34:59;;;;;;;15.20;5.60;;;;;;;;;;5044248;28;20648;-67
2022/02/12 06:37:24;;;;;;;12.27;4.83;;;;;;;;;;5046756;28;20193;-67
2022/02/12 06:39:50;;;;;;;22.23;5.60;;;;;;;;;;5045857;28;20524;-67
2022/02/12 06:42:16;;;;;;;14.93;5.70;;;;;;;;;;5042244;28;20625;-67
2022/02/12 06:44:41;;;;;;;17.30;5.03;;;;;;;;;;5043555;28;20880;-67
2022/02/12 06:47:07;;;;;;;15.53;5.10;;;;;;;;;;5047630;28;20664;-67
2022/02/12 06:49:33;;;;;;;14.30;4.80;;;;;;;;;;5045627;28;20196;-67
2022/02/12 06:51:59;;;;;;;12.87;4.83;;;;;;;;;;5043548;28;20676;-67
2022/02/12 06:54:24;;;;;;;17.43;5.23;;;;;;;;;;5044596;28;20213;-67
2022/02/12 06:56:50;;;;;;;16.87;5.17;;;;;;;;;;5044616;28;20193;-67
2022/02/12 06:59:15;;;;;;;16.83;5.23;;;;;;;;;;5045958;28;20653;-67
2022/02/12 07:01:40;;;;;;;25.87;5.33;;;;;;;;;;5041629;28;20692;-66
2022/02/12 07:04:06;;;;;;;20.70;5.67;;;;;;;;;;5048982;28;20220;-66
2022/02/12 07:06:31;;;;;;;15.80;5.07;;;;;;;;;;5041752;28;20233;-66
2022/02/12 07:08:56;;;;;;;19.07;5.27;;;;;;;;;;5044003;28;20470;-66
2022/02/12 07:11:22;;;;;;;18.10;5.47;;;;;;;;;;5041495;28;21554;-67
2022/02/12 07:13:47;;;;;;;19.30;5.37;;;;;;;;;;5043993;28;20226;-67
2022/02/12 07:16:13;;;;;;;23.43;5.60;;;;;;;;;;5041493;28;20285;-67
2022/02/12 07:18:38;;;;;;;15.57;5.37;;;;;;;;;;5048319;28;20173;-66
2022/02/12 07:21:06;;;;;;;19.77;5.63;;;;;;;;;;5041387;28;20209;-66
2022/02/12 07:23:31;;;;;;;26.27;5.77;;;;;;;;;;5043106;28;20260;-66
2022/02/12 07:25:56;;;;;;;19.57;6.00;;;;;;;;;;5045030;28;20752;-66
2022/02/12 07:28:22;;;;;;;22.80;6.13;;;;;;;;;;5043931;28;20316;-66
2022/02/12 07:30:49;;;;;;;13.47;4.60;;;;;;;;;;5043506;28;20200;-67
2022/02/12 07:33:17;;;;;;;13.20;4.83;;;;;;;;;;5043177;28;20208;-67
2022/02/12 07:35:42;;;;;;;15.90;5.53;;;;;;;;;;5041658;28;20235;-67
2022/02/12 07:38:07;;;;;;;17.90;4.90;;;;;;;;;;5042280;28;20411;-67
2022/02/12 07:40:33;;;;;;;19.13;4.77;;;;;;;;;;5040333;28;20283;-67
2022/02/12 07:42:58;;;;;;;11.37;4.63;;;;;;;;;;5039003;28;20726;-67
2022/02/12 07:45:24;;;;;;;20.17;5.50;;;;;;;;;;5041542;28;20647;-67
2022/02/12 07:47:50;;;;;;;18.97;6.20;;;;;;;;;;5046199;28;20181;-68
2022/02/12 07:50:16;;;;;;;17.60;5.17;;;;;;;;;;5041219;28;20181;-67
2022/02/12 07:52:43;;;;;;;15.10;5.17;;;;;;;;;;5038991;28;20198;-67
2022/02/12 07:55:10;;;;;;;27.70;5.93;;;;;;;;;;5039242;28;20227;-66
2022/02/12 07:57:36;;;;;;;14.20;5.20;;;;;;;;;;5042381;28;20188;-65
2022/02/12 08:00:06;;;;;;;15.37;5.07;;;;;;;;;;5042188;28;20189;-66
2022/02/12 08:02:31;;;;;;;20.80;6.43;;;;;;;;;;5038437;28;20187;-66
2022/02/12 08:04:57;;;;;;;18.00;5.30;;;;;;;;;;5049368;28;20220;-66
2022/02/12 08:07:29;;;;;;;21.30;6.07;;;;;;;;;;5038016;28;20693;-68
2022/02/12 08:11:22;;;;;;;27.63;6.77;;;;;;;;;;5043293;28;20182;-67
2022/02/12 08:12:48;;;;;;;15.80;5.13;;;;;;;;;;5039518;28;20335;-67
2022/02/12 08:15:14;;;;;;;17.70;5.57;;;;;;;;;;5043234;28;20272;-67
2022/02/12 08:17:39;;;;;;;23.50;6.17;;;;;;;;;;5042166;28;20177;-67
2022/02/12 08:20:05;;;;;;;20.10;6.30;;;;;;;;;;5044163;28;20186;-67
2022/02/12 08:22:30;;;;;;;18.33;5.83;;;;;;;;;;5043963;28;20178;-67
2022/02/12 08:24:56;;;;;;;20.57;6.03;;;;;;;;;;5043831;28;20291;-67
2022/02/12 08:27:22;;;;;;;15.17;4.63;;;;;;;;;;5042790;28;20193;-66
2022/02/12 08:29:48;;;;;;;15.87;5.13;;;;;;;;;;5038529;28;20189;-67
2022/02/12 08:32:17;;;;;;;20.37;5.43;;;;;;;;;;5040112;28;20205;-67
2022/02/12 08:34:42;;;;;;;15.77;5.00;;;;;;;;;;5045813;28;20716;-67
2022/02/12 08:37:07;;;;;;;22.23;5.77;;;;;;;;;;5052394;28;20268;-66
2022/02/12 08:39:33;;;;;;;14.67;4.73;;;;;;;;;;5044574;28;20186;-67
2022/02/12 08:41:58;;;;;;;15.37;5.47;;;;;;;;;;5048301;28;20275;-67
2022/02/12 08:44:24;;;;;;;18.33;5.37;;;;;;;;;;5045885;28;20215;-66
2022/02/12 08:46:49;;;;;;;14.67;4.63;;;;;;;;;;5051920;28;20532;-67
2022/02/12 08:49:14;;;;;;;15.90;4.63;;;;;;;;;;5044459;28;20617;-68
2022/02/12 08:51:40;;;;;;;16.43;5.70;;;;;;;;;;5046045;28;20256;-67
2022/02/12 08:54:11;;;;;;;23.23;5.20;;;;;;;;;;5045530;28;20185;-67
2022/02/12 08:56:39;;;;;;;17.73;5.07;;;;;;;;;;5043236;28;20278;-67
2022/02/12 08:59:05;;;;;;;16.40;5.23;;;;;;;;;;5045681;28;20184;-66
2022/02/12 09:01:32;;;;;;;24.93;5.10;;;;;;;;;;5047772;28;20205;-67
2022/02/12 09:03:58;;;;;;;24.23;5.40;;;;;;;;;;5044629;28;20185;-67
2022/02/12 09:06:24;;;;;;;17.10;5.07;;;;;;;;;;5044644;28;20251;-67
2022/02/12 09:08:51;;;;;;;17.17;4.83;;;;;;;;;;5044634;28;20194;-68
2022/02/12 09:11:21;;;;;;;18.03;5.00;;;;;;;;;;5047970;28;20645;-67
2022/02/12 09:13:49;;;;;;;16.90;5.30;;;;;;;;;;5047270;28;20260;-67
2022/02/12 09:16:16;;;;;;;17.10;4.47;;;;;;;;;;5046411;28;20251;-67
2022/02/12 09:18:41;;;;;;;16.07;4.93;;;;;;;;;;5046317;28;20246;-67
2022/02/12 09:21:06;;;;;;;15.43;4.40;;;;;;;;;;5045449;28;20213;-67
2022/02/12 09:23:32;;;;;;;10.43;4.20;;;;;;;;;;5046136;28;20185;-67
2022/02/12 09:25:57;;;;;;;19.03;4.83;;;;;;;;;;5043728;28;20225;-67
2022/02/12 09:28:23;;;;;;;13.87;4.17;;;;;;;;;;5056144;28;20226;-67
2022/02/12 09:30:48;;;;;;;22.73;4.90;;;;;;;;;;5043503;28;20213;-67
2022/02/12 09:33:13;;;;;;;13.90;4.53;;;;;;;;;;5046707;28;20220;-67
2022/02/12 09:35:39;;;;;;;16.00;3.70;;;;;;;;;;5044893;28;20185;-67
2022/02/12 09:38:04;;;;;;;15.03;3.90;;;;;;;;;;5048299;28;20193;-67
2022/02/12 09:40:31;;;;;;;14.53;4.03;;;;;;;;;;5045742;28;20209;-67
2022/02/12 09:42:59;;;;;;;11.23;3.97;;;;;;;;;;5045507;28;20193;-67
2022/02/12 09:45:26;;;;;;;14.90;4.10;;;;;;;;;;5045011;28;20177;-67
2022/02/12 09:47:51;;;;;;;15.80;3.70;;;;;;;;;;5042356;28;20196;-67
2022/02/12 09:50:19;;;;;;;15.87;3.90;;;;;;;;;;5046312;28;21293;-67
2022/02/12 09:52:52;;;;;;;16.13;4.23;;;;;;;;;;5048182;28;20547;-67
2022/02/12 09:55:17;;;;;;;16.70;3.77;;;;;;;;;;5044351;28;20621;-67
2022/02/12 09:57:43;;;;;;;11.30;3.63;;;;;;;;;;5047294;28;20190;-68
2022/02/12 10:00:14;;;;;;;15.77;4.00;;;;;;;;;;5039087;28;20182;-67
2022/02/12 10:02:39;;;;;;;14.30;4.30;;;;;;;;;;5047721;28;20188;-68
2022/02/12 10:05:17;;;;;;;12.40;3.70;;;;;;;;;;5045274;28;20586;-67
2022/02/12 10:07:43;;;;;;;12.03;3.77;;;;;;;;;;5045798;28;20208;-67
2022/02/12 10:10:13;;;;;;;15.93;4.13;;;;;;;;;;5047491;28;20199;-67
2022/02/12 10:12:38;;;;;;;15.40;3.63;;;;;;;;;;5045214;28;20186;-68
2022/02/12 10:15:05;;;;;;;20.43;3.67;;;;;;;;;;5045793;28;20186;-68
2022/02/12 10:17:30;;;;;;;12.60;3.67;;;;;;;;;;5044608;28;20548;-67
2022/02/12 10:19:55;;;;;;;12.40;2.93;;;;;;;;;;5045195;28;20497;-68
2022/02/12 10:22:21;;;;;;;13.60;3.93;;;;;;;;;;5042007;28;20573;-67
2022/02/12 10:24:50;;;;;;;10.43;3.00;;;;;;;;;;5047102;28;20194;-67
2022/02/12 10:27:17;;;;;;;11.60;3.17;;;;;;;;;;5047860;28;20552;-67
2022/02/12 10:29:47;;;;;;;13.10;2.90;;;;;;;;;;5043754;28;20312;-67
2022/02/12 10:32:15;;;;;;;7.97;2.93;;;;;;;;;;5042891;28;20248;-67
2022/02/12 10:34:43;;;;;;;17.53;3.87;;;;;;;;;;5045251;28;20186;-67
2022/02/12 10:37:14;;;;;;;8.20;2.80;;;;;;;;;;5039434;28;20182;-67
2022/02/12 10:40:00;;;;;;;12.27;3.80;;;;;;;;;;5043348;28;20836;-67
2022/02/12 10:42:30;;;;;;;11.60;3.47;;;;;;;;;;5043980;28;20617;-67
2022/02/12 10:44:56;;;;;;;13.47;3.67;;;;;;;;;;5044578;28;20276;-67
2022/02/12 10:47:23;;;;;;;14.50;3.20;;;;;;;;;;5044050;28;20192;-68
2022/02/12 10:49:49;;;;;;;12.57;3.00;;;;;;;;;;5040756;28;20186;-67
2022/02/12 10:52:16;;;;;;;12.77;3.30;;;;;;;;;;5038388;28;20644;-67
2022/02/12 10:54:47;;;;;;;14.93;3.67;;;;;;;;;;5042639;28;20185;-67
2022/02/12 10:57:14;;;;;;;16.27;3.50;;;;;;;;;;5040554;28;20217;-67
2022/02/12 10:59:44;;;;;;;28.40;6.90;;;;;;;;;;5048737;28;20253;-67
2022/02/12 11:02:17;;;;;;;16.53;5.17;;;;;;;;;;5047437;28;20259;-68
2022/02/12 11:04:43;;;;;;;12.73;3.47;;;;;;;;;;5043678;28;20656;-68
2022/02/12 11:07:13;;;;;;;14.70;3.53;;;;;;;;;;5043760;28;20279;-67
2022/02/12 11:09:39;;;;;;;12.90;3.90;;;;;;;;;;5045838;28;20181;-68
2022/02/12 11:12:05;;;;;;;15.23;4.00;;;;;;;;;;5050093;28;20197;-67
2022/02/12 11:14:33;;;;;;;10.07;3.37;;;;;;;;;;5043848;28;20510;-68
2022/02/12 11:17:12;;;;;;;11.47;3.90;;;;;;;;;;5042403;28;20197;-68
2022/02/12 11:19:38;;;;;;;13.23;3.83;;;;;;;;;;5046237;28;20184;-67
2022/02/12 11:22:04;;;;;;;16.87;3.70;;;;;;;;;;5042870;28;20282;-67
2022/02/12 11:24:37;;;;;;;12.00;3.20;;;;;;;;;;5046076;28;20275;-67
2022/02/12 11:27:21;;;;;;;15.00;3.80;;;;;;;;;;5041056;28;20188;-68
2022/02/12 11:29:49;;;;;;;12.57;3.57;;;;;;;;;;5045355;28;20189;-68
2022/02/12 11:32:24;;;;;;;11.17;3.50;;;;;;;;;;5042590;28;20170;-68
2022/02/12 11:35:09;;;;;;;14.27;3.50;;;;;;;;;;5044484;28;20534;-67
2022/02/12 11:37:40;;;;;;;13.97;4.30;;;;;;;;;;5042409;28;20195;-67
2022/02/12 11:40:13;;;;;;;10.93;3.33;;;;;;;;;;5046778;28;20190;-67
2022/02/12 11:42:44;;;;;;;11.77;3.93;;;;;;;;;;5049953;28;20485;-67
2022/02/12 11:45:33;;;;;;;12.53;3.57;;;;;;;;;;5046339;28;20185;-67
2022/02/12 11:48:08;;;;;;;10.20;3.77;;;;;;;;;;5041656;28;20194;-68
2022/02/12 11:50:52;;;;;;;10.07;3.90;;;;;;;;;;5040537;28;20193;-68
2022/02/12 11:53:33;;;;;;;12.87;3.83;;;;;;;;;;5033657;28;20247;-67
2022/02/12 11:56:04;;;;;;;14.47;4.10;;;;;;;;;;5044506;28;20242;-68
2022/02/12 11:58:45;;;;;;;15.40;4.03;;;;;;;;;;5041982;28;20200;-67
2022/02/12 12:01:22;;;;;;;10.73;3.27;;;;;;;;;;5048293;28;20695;-68
2022/02/12 12:04:11;;;;;;;14.23;4.53;;;;;;;;;;5041434;28;20189;-68
2022/02/12 12:06:38;;;;;;;13.70;4.23;;;;;;;;;;5044764;28;20233;-68
2022/02/12 12:09:17;;;;;;;16.03;3.63;;;;;;;;;;5042248;28;20188;-67
2022/02/12 12:12:16;;;;;;;13.93;3.33;;;;;;;;;;5040313;28;20705;-67
2022/02/12 12:14:43;;;;;;;13.30;3.50;;;;;;;;;;5035060;28;20230;-67
2022/02/12 12:17:08;;;;;;;17.70;2.97;;;;;;;;;;5041091;28;20285;-67
2022/02/12 12:19:39;;;;;;;12.80;3.67;;;;;;;;;;5049934;28;20256;-68
2022/02/12 12:22:11;;;;;;;14.97;3.60;;;;;;;;;;5037841;28;20212;-67
2022/02/12 12:24:38;;;;;;;13.53;3.77;;;;;;;;;;5044960;28;20622;-68
2022/02/12 12:27:04;;;;;;;11.20;3.13;;;;;;;;;;5041306;28;20396;-68
2022/02/12 12:32:17;;;;;;;13.90;3.73;;;;;;;;;;5039454;28;20710;-67
2022/02/12 12:35:06;;;;;;;11.93;3.17;;;;;;;;;;5038486;28;20451;-68
2022/02/12 12:37:51;;;;;;;13.13;3.20;;;;;;;;;;5044587;28;20178;-67
2022/02/12 12:40:24;;;;;;;10.43;3.13;;;;;;;;;;5040276;28;20185;-67
2022/02/12 12:43:06;;;;;;;12.90;2.93;;;;;;;;;;5043985;28;20194;-68
2022/02/12 12:45:38;;;;;;;10.57;2.60;;;;;;;;;;5042029;28;20196;-68
2022/02/12 12:48:03;;;;;;;9.63;2.67;;;;;;;;;;5039932;28;20280;-68
2022/02/12 12:50:34;;;;;;;13.57;2.37;;;;;;;;;;5042543;28;20609;-68
2022/02/12 12:53:04;;;;;;;7.73;2.00;;;;;;;;;;5043500;28;20181;-68
2022/02/12 12:55:30;;;;;;;11.53;2.43;;;;;;;;;;5044680;28;20308;-67
2022/02/12 12:57:56;;;;;;;5.60;1.80;;;;;;;;;;5037045;28;20356;-67
2022/02/12 13:00:24;;;;;;;8.20;1.80;;;;;;;;;;5042738;28;20208;-67
2022/02/12 13:02:54;;;;;;;6.23;2.27;;;;;;;;;;5040776;28;20259;-67
2022/02/12 13:05:22;;;;;;;8.00;1.87;;;;;;;;;;5044149;28;20225;-68
2022/02/12 13:07:48;;;;;;;13.40;2.30;;;;;;;;;;5040875;28;20601;-68
2022/02/12 13:10:14;;;;;;;10.17;1.80;;;;;;;;;;5043334;28;20205;-67
2022/02/12 13:12:40;;;;;;;7.60;2.17;;;;;;;;;;5043610;28;20216;-68
2022/02/12 13:15:15;;;;;;;11.20;1.93;;;;;;;;;;5042537;28;20188;-67
2022/02/12 13:17:41;;;;;;;8.53;1.70;;;;;;;;;;5039108;28;20617;-67
2022/02/12 13:20:07;;;;;;;5.77;1.83;;;;;;;;;;5041636;28;20197;-67
2022/02/12 13:22:36;;;;;;;8.90;2.30;;;;;;;;;;5046283;28;20225;-67
2022/02/12 13:25:02;;;;;;;10.73;2.23;;;;;;;;;;5053688;28;20181;-67
2022/02/12 13:27:30;;;;;;;10.87;2.23;;;;;;;;;;5036787;28;20177;-67
2022/02/12 13:30:03;;;;;;;8.40;2.33;;;;;;;;;;5045111;28;20193;-67
2022/02/12 13:32:40;;;;;;;10.40;3.00;;;;;;;;;;5045556;28;20557;-68
2022/02/12 13:35:12;;;;;;;8.03;2.53;;;;;;;;;;5035463;28;20215;-67
2022/02/12 13:37:39;;;;;;;7.50;2.60;;;;;;;;;;5045714;28;20720;-67
2022/02/12 13:40:07;;;;;;;11.07;3.20;;;;;;;;;;5044151;28;20189;-67
2022/02/12 13:42:33;;;;;;;14.57;2.97;;;;;;;;;;5044880;28;20198;-67
2022/02/12 13:44:59;;;;;;;11.17;2.50;;;;;;;;;;5045586;28;20517;-67
2022/02/12 13:47:25;;;;;;;7.97;2.20;;;;;;;;;;5039088;28;20200;-68
2022/02/12 13:49:54;;;;;;;5.47;1.90;;;;;;;;;;5040839;28;20190;-67
2022/02/12 13:52:19;;;;;;;10.50;2.63;;;;;;;;;;5041929;28;20180;-67
2022/02/12 13:54:45;;;;;;;7.70;2.53;;;;;;;;;;5042534;28;20595;-68
2022/02/12 13:57:11;;;;;;;8.27;2.10;;;;;;;;;;5050204;28;20266;-68
2022/02/12 13:59:36;;;;;;;15.57;3.57;;;;;;;;;;5043780;28;20204;-68
2022/02/12 14:02:01;;;;;;;11.83;2.83;;;;;;;;;;5046847;28;20616;-67
2022/02/12 14:04:29;;;;;;;9.60;2.53;;;;;;;;;;5041363;28;20202;-67
2022/02/12 14:06:55;;;;;;;9.13;2.83;;;;;;;;;;5047225;28;20669;-67
2022/02/12 14:09:21;;;;;;;9.43;2.83;;;;;;;;;;5042212;28;20769;-67
2022/02/12 14:11:48;;;;;;;11.47;2.83;;;;;;;;;;5046888;28;20248;-67
2022/02/12 14:14:15;;;;;;;11.23;2.73;;;;;;;;;;5041050;28;20186;-66
2022/02/12 14:16:41;;;;;;;10.53;2.70;;;;;;;;;;5051901;28;20643;-66
2022/02/12 14:19:07;;;;;;;10.03;2.47;;;;;;;;;;5043889;28;20297;-66
2022/02/12 14:21:34;;;;;;;11.67;2.63;;;;;;;;;;5045602;28;20214;-67
2022/02/12 14:23:59;;;;;;;11.73;2.10;;;;;;;;;;5044894;28;20197;-67
2022/02/12 14:26:26;;;;;;;6.70;2.40;;;;;;;;;;5047569;28;20205;-67
2022/02/12 14:28:51;;;;;;;11.47;2.53;;;;;;;;;;5042631;28;20558;-67
2022/02/12 14:31:17;;;;;;;8.40;2.30;;;;;;;;;;5044802;28;20201;-67
2022/02/12 14:33:43;;;;;;;11.07;2.53;;;;;;;;;;5042900;28;20200;-67
2022/02/12 14:36:09;;;;;;;8.80;3.13;;;;;;;;;;5042634;28;20185;-67
2022/02/12 14:38:34;;;;;;;10.13;2.43;;;;;;;;;;5043601;28;20281;-68